createdAt,value
2018-08-30T16:54:25.824Z,1004.59
2018-08-30T16:55:30.037Z,1004.66
2018-08-30T16:56:30.253Z,1004.68
2018-08-30T16:57:40.693Z,1004.67
2018-08-30T16:58:42.285Z,1004.65
2018-08-30T16:59:47.287Z,1004.7
2018-08-30T17:00:52.072Z,1004.71
2018-08-30T17:01:56.486Z,1004.66
2018-08-30T17:03:02.409Z,1004.69
2018-08-30T17:04:06.115Z,1004.75
2018-08-30T17:05:07.977Z,1004.7
2018-08-30T17:06:21.867Z,1004.64
2018-08-30T17:07:43.043Z,1004.73
2018-08-30T17:08:30.867Z,1004.72
2018-08-30T17:09:31.753Z,1004.74
2018-08-30T17:10:31.720Z,1004.76
2018-08-30T17:11:32.963Z,1004.75
2018-08-30T17:12:32.748Z,1004.71
2018-08-30T17:13:36.405Z,1004.75
2018-08-30T17:14:37.976Z,1004.69
2018-08-30T17:15:41.277Z,1004.68
2018-08-30T17:16:40.277Z,1004.74
2018-08-30T17:17:52.276Z,1004.74
2018-08-30T17:19:01.992Z,1004.68
2018-08-30T17:20:01.509Z,1004.71
2018-08-30T17:20:59.315Z,1004.68
2018-08-30T17:21:57.707Z,1004.69
2018-08-30T17:23:00.774Z,1004.72
2018-08-30T17:23:59.884Z,1004.68
2018-08-30T17:24:57.336Z,1004.66
2018-08-30T17:26:00.625Z,1004.62
2018-08-30T17:26:56.186Z,1004.69
2018-08-30T17:27:59.778Z,1004.65
2018-08-30T17:28:56.718Z,1004.76
2018-08-30T17:30:13.523Z,1004.65
2018-08-30T17:31:13.311Z,1004.74
2018-08-30T17:32:12.847Z,1004.68
2018-08-30T17:33:11.219Z,1004.67
2018-08-30T17:34:11.370Z,1004.74
2018-08-30T17:35:09.731Z,1004.73
2018-08-30T17:36:08.040Z,1004.73
2018-08-30T17:37:06.718Z,1004.73
2018-08-30T17:38:05.527Z,1004.76
2018-08-30T17:39:06.270Z,1004.76
2018-08-30T17:40:04.679Z,1004.68
2018-08-30T17:40:59.705Z,1004.74
2018-08-30T17:42:12.513Z,1004.7
2018-08-30T17:43:12.485Z,1004.76
2018-08-30T17:44:11.920Z,1004.76
2018-08-30T17:45:12.549Z,1004.68
2018-08-30T17:46:13.033Z,1004.71
2018-08-30T17:47:10.791Z,1004.71
2018-08-30T17:48:17.036Z,1004.76
2018-08-30T17:49:13.924Z,1004.76
2018-08-30T17:50:19.689Z,1004.73
2018-08-30T17:51:20.067Z,1004.76
2018-08-30T17:52:18.097Z,1004.76
2018-08-30T17:53:19.988Z,1004.81
2018-08-30T17:54:19.856Z,1004.87
2018-08-30T17:55:36.773Z,1004.78
2018-08-30T17:56:34.806Z,1004.78
2018-08-30T17:57:35.981Z,1004.81
2018-08-30T17:58:33.702Z,1004.84
2018-08-30T17:59:38.197Z,1004.81
2018-08-30T18:00:39.253Z,1004.9
2018-08-30T18:01:36.979Z,1004.78
2018-08-30T18:02:34.995Z,1004.89
2018-08-30T18:03:32.406Z,1004.81
2018-08-30T18:04:51.344Z,1004.86
2018-08-30T18:05:49.208Z,1004.83
2018-08-30T18:07:00.229Z,1004.81
2018-08-30T18:07:55.402Z,1004.89
2018-08-30T18:08:57.282Z,1004.87
2018-08-30T18:10:06.891Z,1004.87
2018-08-30T18:11:04.882Z,1004.84
2018-08-30T18:12:03.910Z,1004.84
2018-08-30T18:13:04.386Z,1004.89
2018-08-30T18:13:59.183Z,1004.81
2018-08-30T18:15:02.021Z,1004.84
2018-08-30T18:16:01.500Z,1004.91
2018-08-30T18:17:16.178Z,1004.89
2018-08-30T18:18:10.689Z,1004.93
2018-08-30T18:19:10.929Z,1004.91
2018-08-30T18:20:08.403Z,1004.91
2018-08-30T18:21:16.744Z,1004.91
2018-08-30T18:22:12.002Z,1004.94
2018-08-30T18:23:12.733Z,1004.91
2018-08-30T18:24:13.484Z,1005.06
2018-08-30T18:25:19.100Z,1005.05
2018-08-30T18:26:33.432Z,1005.03
2018-08-30T18:27:31.452Z,1004.97
2018-08-30T18:28:36.157Z,1005.08
2018-08-30T18:29:37.320Z,1005.15
2018-08-30T18:30:42.851Z,1005.12
2018-08-30T18:31:45.859Z,1005.16
2018-08-30T18:33:00.784Z,1005.09
2018-08-30T18:34:06.652Z,1005.12
2018-08-30T18:35:05.798Z,1005.12
2018-08-30T18:36:03.902Z,1005.19
2018-08-30T18:37:01.621Z,1005.2
2018-08-30T18:37:59.778Z,1005.22
2018-08-30T18:39:04.192Z,1005.21
2018-08-30T18:40:04.260Z,1005.24
2018-08-30T18:41:02.851Z,1005.24
2018-08-30T18:42:03.271Z,1005.15
2018-08-30T18:43:02.010Z,1005.3
2018-08-30T18:44:02.939Z,1005.33
2018-08-30T18:45:14.968Z,1005.29
2018-08-30T18:46:14.640Z,1005.33
2018-08-30T18:47:13.839Z,1005.26
2018-08-30T18:48:17.832Z,1005.27
2018-08-30T18:49:26.603Z,1005.33
2018-08-30T18:50:26.985Z,1005.3
2018-08-30T18:51:24.681Z,1005.32
2018-08-30T18:52:32.219Z,1005.38
2018-08-30T18:53:32.046Z,1005.39
2018-08-30T18:54:35.383Z,1005.42
2018-08-30T18:55:33.975Z,1005.36
2018-08-30T18:56:47.248Z,1005.38
2018-08-30T18:57:43.048Z,1005.29
2018-08-30T18:58:40.985Z,1005.39
2018-08-30T18:59:38.679Z,1005.29
2018-08-30T19:00:37.933Z,1005.39
2018-08-30T19:01:37.873Z,1005.39
2018-08-30T19:02:36.058Z,1005.39
2018-08-30T19:03:36.706Z,1005.38
2018-08-30T19:04:40.811Z,1005.36
2018-08-30T19:05:38.971Z,1005.38
2018-08-30T19:06:50.698Z,1005.47
2018-08-30T19:07:46.415Z,1005.42
2018-08-30T19:08:45.088Z,1005.48
2018-08-30T19:09:44.216Z,1005.39
2018-08-30T19:10:42.432Z,1005.42
2018-08-30T19:11:39.613Z,1005.56
2018-08-30T19:12:51.357Z,1005.47
2018-08-30T19:13:49.960Z,1005.44
2018-08-30T19:15:03.080Z,1005.47
2018-08-30T19:16:03.993Z,1005.56
2018-08-30T19:17:01.860Z,1005.54
2018-08-30T19:18:12.928Z,1005.56
2018-08-30T19:19:12.376Z,1005.65
2018-08-30T19:20:10.823Z,1005.56
2018-08-30T19:21:09.575Z,1005.6
2018-08-30T19:22:07.509Z,1005.57
2018-08-30T19:23:06.874Z,1005.63
2018-08-30T19:24:06.569Z,1005.56
2018-08-30T19:25:01.968Z,1005.63
2018-08-30T19:26:03.362Z,1005.6
2018-08-30T19:26:59.077Z,1005.66
2018-08-30T19:28:20.059Z,1005.69
2018-08-30T19:29:14.791Z,1005.6
2018-08-30T19:30:17.509Z,1005.63
2018-08-30T19:31:19.019Z,1005.69
2018-08-30T19:32:17.219Z,1005.71
2018-08-30T19:33:15.674Z,1005.62
2018-08-30T19:34:14.531Z,1005.68
2018-08-30T19:35:15.134Z,1005.74
2018-08-30T19:36:15.957Z,1005.69
2018-08-30T19:37:16.911Z,1005.69
2018-08-30T19:38:24.315Z,1005.72
2018-08-30T19:39:22.510Z,1005.71
2018-08-30T19:40:17.506Z,1005.66
2018-08-30T19:41:17.267Z,1005.71
2018-08-30T19:42:20.684Z,1005.69
2018-08-30T19:43:31.624Z,1005.71
2018-08-30T19:44:30.990Z,1005.68
2018-08-30T19:45:29.130Z,1005.66
2018-08-30T19:46:32.400Z,1005.65
2018-08-30T19:47:30.606Z,1005.64
2018-08-30T19:48:29.807Z,1005.66
2018-08-30T19:49:27.912Z,1005.65
2018-08-30T19:50:27.624Z,1005.62
2018-08-30T19:51:25.847Z,1005.72
2018-08-30T19:52:28.884Z,1005.74
2018-08-30T19:53:27.662Z,1005.78
2018-08-30T19:54:32.657Z,1005.66
2018-08-30T19:55:38.904Z,1005.72
2018-08-30T19:56:38.755Z,1005.74
2018-08-30T19:57:56.301Z,1005.66
2018-08-30T19:58:56.261Z,1005.72
2018-08-30T20:00:01.216Z,1005.71
2018-08-30T20:00:59.006Z,1005.65
2018-08-30T20:02:08.454Z,1005.72
2018-08-30T20:03:08.458Z,1005.74
2018-08-30T20:04:08.528Z,1005.71
2018-08-30T20:05:03.479Z,1005.74
2018-08-30T20:06:06.383Z,1005.71
2018-08-30T20:07:04.974Z,1005.7
2018-08-30T20:08:01.845Z,1005.71
2018-08-30T20:09:02.244Z,1005.7
2018-08-30T20:09:59.846Z,1005.71
2018-08-30T20:11:21.998Z,1005.67
2018-08-30T20:12:16.090Z,1005.77
2018-08-30T20:13:13.463Z,1005.7
2018-08-30T20:14:13.150Z,1005.65
2018-08-30T20:15:21.043Z,1005.71
2018-08-30T20:16:20.564Z,1005.8
2018-08-30T20:17:22.267Z,1005.76
2018-08-30T20:18:29.163Z,1005.73
2018-08-30T20:19:29.266Z,1005.74
2018-08-30T20:20:35.169Z,1005.7
2018-08-30T20:21:33.287Z,1005.74
2018-08-30T20:22:30.783Z,1005.79
2018-08-30T20:23:54.365Z,1005.81
2018-08-30T20:24:56.119Z,1005.8
2018-08-30T20:26:00.079Z,1005.73
2018-08-30T20:27:02.143Z,1005.67
2018-08-30T20:28:01.155Z,1005.71
2018-08-30T20:29:00.220Z,1005.76
2018-08-30T20:29:57.895Z,1005.68
2018-08-30T20:30:55.832Z,1005.7
2018-08-30T20:31:54.453Z,1005.68
2018-08-30T20:32:54.372Z,1005.64
2018-08-30T20:33:52.489Z,1005.71
2018-08-30T20:34:48.722Z,1005.74
2018-08-30T20:36:03.085Z,1005.74
2018-08-30T20:36:57.937Z,1005.77
2018-08-30T20:37:57.730Z,1005.74
2018-08-30T20:38:55.869Z,1005.74
2018-08-30T20:39:53.647Z,1005.68
2018-08-30T20:40:52.279Z,1005.79
2018-08-30T20:41:50.194Z,1005.71
2018-08-30T20:42:52.304Z,1005.67
2018-08-30T20:43:50.316Z,1005.73
2018-08-30T20:44:49.048Z,1005.64
2018-08-30T20:45:45.300Z,1005.73
2018-08-30T20:46:58.963Z,1005.79
2018-08-30T20:47:55.776Z,1005.68
2018-08-30T20:48:56.034Z,1005.68
2018-08-30T20:49:57.638Z,1005.68
2018-08-30T20:51:02.816Z,1005.68
2018-08-30T20:52:01.817Z,1005.68
2018-08-30T20:53:06.421Z,1005.64
2018-08-30T20:54:06.778Z,1005.82
2018-08-30T20:55:05.156Z,1005.77
2018-08-30T20:56:05.528Z,1005.7
2018-08-30T20:57:04.705Z,1005.77
2018-08-30T20:58:04.990Z,1005.74
2018-08-30T20:59:16.750Z,1005.74
2018-08-30T21:00:14.836Z,1005.8
2018-08-30T21:01:13.285Z,1005.77
2018-08-30T21:02:16.878Z,1005.82
2018-08-30T21:03:21.242Z,1005.83
2018-08-30T21:04:30.437Z,1005.76
2018-08-30T21:05:35.231Z,1005.73
2018-08-30T21:06:33.694Z,1005.73
2018-08-30T21:07:34.741Z,1005.77
2018-08-30T21:08:32.459Z,1005.73
2018-08-30T21:09:32.083Z,1005.74
2018-08-30T21:10:30.973Z,1005.76
2018-08-30T21:11:29.704Z,1005.74
2018-08-30T21:12:24.600Z,1005.73
2018-08-30T21:13:29.325Z,1005.71
2018-08-30T21:14:37.725Z,1005.7
2018-08-30T21:15:51.994Z,1005.7
2018-08-30T21:16:48.792Z,1005.77
2018-08-30T21:17:50.264Z,1005.82
2018-08-30T21:18:48.586Z,1005.76
2018-08-30T21:19:46.042Z,1005.77
2018-08-30T21:20:46.665Z,1005.79
2018-08-30T21:21:53.745Z,1005.73
2018-08-30T21:22:51.066Z,1005.74
2018-08-30T21:23:50.142Z,1005.76
2018-08-30T21:24:50.719Z,1005.71
2018-08-30T21:25:50.237Z,1005.79
2018-08-30T21:26:51.126Z,1005.74
2018-08-30T21:28:11.591Z,1005.83
2018-08-30T21:29:09.417Z,1005.79
2018-08-30T21:30:10.965Z,1005.74
2018-08-30T21:31:12.029Z,1005.88
2018-08-30T21:32:20.756Z,1005.83
2018-08-30T21:33:19.765Z,1005.88
2018-08-30T21:34:22.892Z,1005.87
2018-08-30T21:35:23.100Z,1005.82
2018-08-30T21:36:20.690Z,1005.8
2018-08-30T21:37:21.166Z,1005.87
2018-08-30T21:38:21.545Z,1005.8
2018-08-30T21:39:34.245Z,1005.79
2018-08-30T21:40:28.854Z,1005.74
2018-08-30T21:41:30.826Z,1005.76
2018-08-30T21:42:30.354Z,1005.73
2018-08-30T21:43:27.877Z,1005.9
2018-08-30T21:44:30.013Z,1005.82
2018-08-30T21:45:35.772Z,1005.82
2018-08-30T21:46:37.295Z,1005.82
2018-08-30T21:47:38.909Z,1005.83
2018-08-30T21:48:47.972Z,1005.77
2018-08-30T21:49:43.297Z,1005.8
2018-08-30T21:50:59.857Z,1005.74
2018-08-30T21:51:55.436Z,1005.77
2018-08-30T21:52:54.939Z,1005.81
2018-08-30T21:53:52.919Z,1005.89
2018-08-30T21:54:57.326Z,1005.89
2018-08-30T21:55:58.120Z,1005.86
2018-08-30T21:56:59.785Z,1005.75
2018-08-30T21:57:55.346Z,1005.83
2018-08-30T21:58:55.821Z,1005.81
2018-08-30T21:59:53.847Z,1005.81
2018-08-30T22:00:52.830Z,1005.8
2018-08-30T22:01:58.836Z,1005.86
2018-08-30T22:02:57.359Z,1005.78
2018-08-30T22:04:07.555Z,1005.83
2018-08-30T22:05:04.899Z,1005.88
2018-08-30T22:06:03.535Z,1005.81
2018-08-30T22:07:02.182Z,1005.81
2018-08-30T22:08:09.916Z,1005.83
2018-08-30T22:09:12.270Z,1005.88
2018-08-30T22:10:15.353Z,1005.86
2018-08-30T22:11:24.775Z,1005.83
2018-08-30T22:12:27.665Z,1005.83
2018-08-30T22:13:22.491Z,1005.81
2018-08-30T22:14:22.444Z,1005.89
2018-08-30T22:15:34.386Z,1005.86
2018-08-30T22:16:30.342Z,1005.91
2018-08-30T22:17:31.549Z,1005.86
2018-08-30T22:18:29.292Z,1005.88
2018-08-30T22:19:27.343Z,1005.83
2018-08-30T22:20:27.317Z,1005.88
2018-08-30T22:21:27.745Z,1005.78
2018-08-30T22:22:26.182Z,1005.83
2018-08-30T22:23:25.039Z,1005.86
2018-08-30T22:24:39.440Z,1005.89
2018-08-30T22:25:37.051Z,1005.81
2018-08-30T22:26:51.122Z,1005.83
2018-08-30T22:27:52.013Z,1005.83
2018-08-30T22:28:58.145Z,1005.77
2018-08-30T22:29:53.579Z,1005.81
2018-08-30T22:30:54.613Z,1005.81
2018-08-30T22:31:51.168Z,1005.81
2018-08-30T22:32:51.910Z,1005.8
2018-08-30T22:33:53.556Z,1005.88
2018-08-30T22:34:51.239Z,1005.86
2018-08-30T22:35:53.669Z,1005.77
2018-08-30T22:36:55.651Z,1005.83
2018-08-30T22:38:11.806Z,1005.81
2018-08-30T22:39:08.811Z,1005.93
2018-08-30T22:40:06.561Z,1005.98
2018-08-30T22:41:05.959Z,1005.94
2018-08-30T22:42:05.293Z,1005.92
2018-08-30T22:43:04.121Z,1005.95
2018-08-30T22:44:09.013Z,1005.88
2018-08-30T22:45:12.081Z,1005.94
2018-08-30T22:46:13.889Z,1005.89
2018-08-30T22:47:08.408Z,1005.93
2018-08-30T22:48:24.521Z,1005.9
2018-08-30T22:49:22.358Z,1005.93
2018-08-30T22:50:20.318Z,1005.93
2018-08-30T22:51:18.638Z,1005.9
2018-08-30T22:52:17.108Z,1005.81
2018-08-30T22:53:14.088Z,1005.88
2018-08-30T22:54:18.223Z,1005.8
2018-08-30T22:55:24.494Z,1005.87
2018-08-30T22:56:22.077Z,1005.89
2018-08-30T22:57:16.811Z,1005.93
2018-08-30T22:58:18.525Z,1005.82
2018-08-30T22:59:24.193Z,1005.93
2018-08-30T23:00:23.490Z,1005.92
2018-08-30T23:01:35.566Z,1005.9
2018-08-30T23:02:36.585Z,1005.93
2018-08-30T23:03:41.166Z,1005.86
2018-08-30T23:04:40.895Z,1005.81
2018-08-30T23:05:40.713Z,1005.93
2018-08-30T23:06:40.641Z,1005.86
2018-08-30T23:07:44.613Z,1005.9
2018-08-30T23:09:02.304Z,1005.98
2018-08-30T23:10:06.649Z,1005.9
2018-08-30T23:11:04.752Z,1005.87
2018-08-30T23:12:09.334Z,1005.82
2018-08-30T23:13:06.677Z,1005.82
2018-08-30T23:14:06.667Z,1005.82
2018-08-30T23:15:01.710Z,1005.86
2018-08-30T23:16:02.612Z,1005.79
2018-08-30T23:17:02.705Z,1005.87
2018-08-30T23:18:00.337Z,1005.87
2018-08-30T23:18:55.715Z,1005.79
2018-08-30T23:20:06.204Z,1005.87
2018-08-30T23:21:03.075Z,1005.75
2018-08-30T23:22:03.212Z,1005.75
2018-08-30T23:22:57.992Z,1005.79
2018-08-30T23:24:00.887Z,1005.81
2018-08-30T23:25:05.339Z,1005.81
2018-08-30T23:26:10.330Z,1005.72
2018-08-30T23:27:10.601Z,1005.76
2018-08-30T23:28:08.766Z,1005.86
2018-08-30T23:29:14.999Z,1005.89
2018-08-30T23:30:26.937Z,1005.76
2018-08-30T23:31:27.803Z,1005.82
2018-08-30T23:32:30.586Z,1005.73
2018-08-30T23:33:29.105Z,1005.79
2018-08-30T23:34:28.969Z,1005.87
2018-08-30T23:35:41.265Z,1005.81
2018-08-30T23:36:37.458Z,1005.82
2018-08-30T23:37:39.793Z,1005.78
2018-08-30T23:38:05.693Z,1005.81
2018-08-30T23:39:08.416Z,1005.81
2018-08-30T23:40:07.199Z,1005.81
2018-08-30T23:41:07.535Z,1005.75
2018-08-30T23:42:05.704Z,1005.81
2018-08-30T23:43:05.597Z,1005.87
2018-08-30T23:44:09.444Z,1005.82
2018-08-30T23:45:04.208Z,1005.92
2018-08-30T23:46:01.979Z,1005.92
2018-08-30T23:47:23.019Z,1005.82
2018-08-30T23:48:09.101Z,1005.87
2018-08-30T23:49:07.111Z,1005.87
2018-08-30T23:50:06.171Z,1005.82
2018-08-30T23:51:04.586Z,1005.79
2018-08-30T23:52:04.958Z,1005.9
2018-08-30T23:53:02.734Z,1005.89
2018-08-30T23:54:03.597Z,1005.81
2018-08-30T23:55:05.895Z,1005.86
2018-08-30T23:56:12.943Z,1005.89
2018-08-30T23:57:13.472Z,1005.82
2018-08-30T23:58:08.123Z,1005.86
2018-08-30T23:59:32.028Z,1005.82
